sensor_id;sensor_type;location;lat;lon;timestamp;temperature;humidity
12156;DHT22;6141;49.092;8.516;2024-01-07T00:00:35;7.30;57.70
12156;DHT22;6141;49.092;8.516;2024-01-07T00:03:24;7.50;55.50
12156;DHT22;6141;49.092;8.516;2024-01-07T00:06:13;7.50;55.50
12156;DHT22;6141;49.092;8.516;2024-01-07T00:09:01;7.40;55.40
12156;DHT22;6141;49.092;8.516;2024-01-07T00:11:51;7.60;55.60
12156;DHT22;6141;49.092;8.516;2024-01-07T00:14:40;7.60;54.30
12156;DHT22;6141;49.092;8.516;2024-01-07T00:17:28;7.60;54.70
12156;DHT22;6141;49.092;8.516;2024-01-07T00:20:17;7.30;55.40
12156;DHT22;6141;49.092;8.516;2024-01-07T00:23:05;7.30;56.20
12156;DHT22;6141;49.092;8.516;2024-01-07T00:25:54;7.40;55.40
12156;DHT22;6141;49.092;8.516;2024-01-07T00:28:44;7.50;55.50
12156;DHT22;6141;49.092;8.516;2024-01-07T00:31:32;7.50;55.50
12156;DHT22;6141;49.092;8.516;2024-01-07T00:34:21;7.50;54.20
12156;DHT22;6141;49.092;8.516;2024-01-07T00:37:10;7.40;55.40
12156;DHT22;6141;49.092;8.516;2024-01-07T00:39:58;7.40;55.40
12156;DHT22;6141;49.092;8.516;2024-01-07T00:42:47;7.50;54.90
12156;DHT22;6141;49.092;8.516;2024-01-07T00:45:37;7.50;54.10
12156;DHT22;6141;49.092;8.516;2024-01-07T00:48:26;7.40;55.40
12156;DHT22;6141;49.092;8.516;2024-01-07T00:51:15;7.60;55.60
12156;DHT22;6141;49.092;8.516;2024-01-07T00:54:03;7.60;54.60
12156;DHT22;6141;49.092;8.516;2024-01-07T00:56:52;7.70;53.60
12156;DHT22;6141;49.092;8.516;2024-01-07T00:59:41;7.80;52.40
12156;DHT22;6141;49.092;8.516;2024-01-07T01:02:30;7.70;52.70
12156;DHT22;6141;49.092;8.516;2024-01-07T01:05:19;7.50;54.40
12156;DHT22;6141;49.092;8.516;2024-01-07T01:08:07;7.40;54.40
12156;DHT22;6141;49.092;8.516;2024-01-07T01:10:56;7.30;55.10
12156;DHT22;6141;49.092;8.516;2024-01-07T01:13:44;7.10;55.10
12156;DHT22;6141;49.092;8.516;2024-01-07T01:16:33;7.00;57.20
12156;DHT22;6141;49.092;8.516;2024-01-07T01:19:24;7.00;58.00
12156;DHT22;6141;49.092;8.516;2024-01-07T01:22:12;7.00;57.30
12156;DHT22;6141;49.092;8.516;2024-01-07T01:25:01;7.00;57.40
12156;DHT22;6141;49.092;8.516;2024-01-07T01:27:50;7.00;57.50
12156;DHT22;6141;49.092;8.516;2024-01-07T01:30:39;7.00;58.60
12156;DHT22;6141;49.092;8.516;2024-01-07T01:33:28;6.90;58.40
12156;DHT22;6141;49.092;8.516;2024-01-07T01:36:18;6.90;58.10
12156;DHT22;6141;49.092;8.516;2024-01-07T01:39:07;6.80;57.30
12156;DHT22;6141;49.092;8.516;2024-01-07T01:41:55;6.70;59.80
12156;DHT22;6141;49.092;8.516;2024-01-07T01:44:46;6.80;59.60
12156;DHT22;6141;49.092;8.516;2024-01-07T01:47:34;6.80;59.10
12156;DHT22;6141;49.092;8.516;2024-01-07T01:50:23;6.60;60.10
12156;DHT22;6141;49.092;8.516;2024-01-07T01:53:14;6.50;61.20
12156;DHT22;6141;49.092;8.516;2024-01-07T01:56:03;6.50;61.70
12156;DHT22;6141;49.092;8.516;2024-01-07T01:58:51;6.60;61.00
12156;DHT22;6141;49.092;8.516;2024-01-07T02:01:40;6.80;60.20
12156;DHT22;6141;49.092;8.516;2024-01-07T02:04:29;6.70;59.50
12156;DHT22;6141;49.092;8.516;2024-01-07T02:07:17;6.40;61.70
12156;DHT22;6141;49.092;8.516;2024-01-07T02:10:08;6.50;62.60
12156;DHT22;6141;49.092;8.516;2024-01-07T02:12:57;6.60;60.60
12156;DHT22;6141;49.092;8.516;2024-01-07T02:15:46;6.50;61.30
12156;DHT22;6141;49.092;8.516;2024-01-07T02:18:35;6.40;60.30
12156;DHT22;6141;49.092;8.516;2024-01-07T02:21:25;6.50;61.00
12156;DHT22;6141;49.092;8.516;2024-01-07T02:24:16;6.60;60.50
12156;DHT22;6141;49.092;8.516;2024-01-07T02:27:05;6.70;59.10
12156;DHT22;6141;49.092;8.516;2024-01-07T02:29:54;6.70;59.00
12156;DHT22;6141;49.092;8.516;2024-01-07T02:32:43;6.90;58.60
12156;DHT22;6141;49.092;8.516;2024-01-07T02:35:32;6.80;58.60
12156;DHT22;6141;49.092;8.516;2024-01-07T02:38:20;6.80;57.10
12156;DHT22;6141;49.092;8.516;2024-01-07T02:41:10;6.70;58.90
12156;DHT22;6141;49.092;8.516;2024-01-07T02:43:58;6.60;60.00
12156;DHT22;6141;49.092;8.516;2024-01-07T02:46:47;6.70;59.60
12156;DHT22;6141;49.092;8.516;2024-01-07T02:49:35;6.80;57.80
12156;DHT22;6141;49.092;8.516;2024-01-07T02:52:24;6.70;58.30
12156;DHT22;6141;49.092;8.516;2024-01-07T02:55:12;6.80;57.80
12156;DHT22;6141;49.092;8.516;2024-01-07T02:58:03;6.80;57.60
12156;DHT22;6141;49.092;8.516;2024-01-07T03:00:51;6.70;58.70
12156;DHT22;6141;49.092;8.516;2024-01-07T03:03:40;6.80;58.50
12156;DHT22;6141;49.092;8.516;2024-01-07T03:06:28;7.00;55.90
12156;DHT22;6141;49.092;8.516;2024-01-07T03:09:17;6.80;57.30
12156;DHT22;6141;49.092;8.516;2024-01-07T03:12:06;6.70;56.90
12156;DHT22;6141;49.092;8.516;2024-01-07T03:14:56;6.40;59.20
12156;DHT22;6141;49.092;8.516;2024-01-07T03:17:44;6.40;59.70
12156;DHT22;6141;49.092;8.516;2024-01-07T03:20:33;6.50;59.30
12156;DHT22;6141;49.092;8.516;2024-01-07T03:23:24;6.50;59.60
12156;DHT22;6141;49.092;8.516;2024-01-07T03:26:13;6.40;60.30
12156;DHT22;6141;49.092;8.516;2024-01-07T03:29:02;6.50;60.20
12156;DHT22;6141;49.092;8.516;2024-01-07T03:31:51;6.50;59.80
12156;DHT22;6141;49.092;8.516;2024-01-07T03:34:40;6.40;60.30
12156;DHT22;6141;49.092;8.516;2024-01-07T03:37:29;6.40;60.30
12156;DHT22;6141;49.092;8.516;2024-01-07T03:40:18;6.50;59.40
12156;DHT22;6141;49.092;8.516;2024-01-07T03:43:06;6.50;59.00
12156;DHT22;6141;49.092;8.516;2024-01-07T03:45:55;6.40;59.50
12156;DHT22;6141;49.092;8.516;2024-01-07T03:48:45;6.30;60.50
12156;DHT22;6141;49.092;8.516;2024-01-07T03:51:34;6.10;61.70
12156;DHT22;6141;49.092;8.516;2024-01-07T03:54:22;6.10;62.30
12156;DHT22;6141;49.092;8.516;2024-01-07T03:57:11;5.90;62.90
12156;DHT22;6141;49.092;8.516;2024-01-07T04:00:00;6.10;63.30
12156;DHT22;6141;49.092;8.516;2024-01-07T04:02:50;5.90;63.60
12156;DHT22;6141;49.092;8.516;2024-01-07T04:05:40;5.90;64.80
12156;DHT22;6141;49.092;8.516;2024-01-07T04:08:29;6.00;64.80
12156;DHT22;6141;49.092;8.516;2024-01-07T04:11:17;6.20;62.70
12156;DHT22;6141;49.092;8.516;2024-01-07T04:14:06;6.10;62.90
12156;DHT22;6141;49.092;8.516;2024-01-07T04:16:54;6.10;63.00
12156;DHT22;6141;49.092;8.516;2024-01-07T04:19:43;6.10;62.80
12156;DHT22;6141;49.092;8.516;2024-01-07T04:22:32;6.00;62.90
12156;DHT22;6141;49.092;8.516;2024-01-07T04:25:21;6.10;63.10
12156;DHT22;6141;49.092;8.516;2024-01-07T04:28:10;6.00;62.40
12156;DHT22;6141;49.092;8.516;2024-01-07T04:30:58;5.80;63.90
12156;DHT22;6141;49.092;8.516;2024-01-07T04:33:47;5.80;64.70
12156;DHT22;6141;49.092;8.516;2024-01-07T04:36:36;5.80;64.70
12156;DHT22;6141;49.092;8.516;2024-01-07T04:39:25;5.90;64.80
12156;DHT22;6141;49.092;8.516;2024-01-07T04:42:15;6.10;63.60
12156;DHT22;6141;49.092;8.516;2024-01-07T04:45:04;6.30;61.90
12156;DHT22;6141;49.092;8.516;2024-01-07T04:47:52;6.20;61.20
12156;DHT22;6141;49.092;8.516;2024-01-07T04:50:41;6.20;61.50
12156;DHT22;6141;49.092;8.516;2024-01-07T04:53:30;6.20;61.70
12156;DHT22;6141;49.092;8.516;2024-01-07T04:56:19;6.20;61.70
12156;DHT22;6141;49.092;8.516;2024-01-07T04:59:08;6.20;61.90
12156;DHT22;6141;49.092;8.516;2024-01-07T05:01:57;6.20;61.40
12156;DHT22;6141;49.092;8.516;2024-01-07T05:04:45;6.40;61.00
12156;DHT22;6141;49.092;8.516;2024-01-07T05:07:34;6.40;60.40
12156;DHT22;6141;49.092;8.516;2024-01-07T05:10:22;6.60;60.70
12156;DHT22;6141;49.092;8.516;2024-01-07T05:13:12;6.40;60.60
12156;DHT22;6141;49.092;8.516;2024-01-07T05:16:01;6.40;59.90
12156;DHT22;6141;49.092;8.516;2024-01-07T05:18:50;6.40;59.40
12156;DHT22;6141;49.092;8.516;2024-01-07T05:21:39;6.50;59.70
12156;DHT22;6141;49.092;8.516;2024-01-07T05:24:27;6.40;59.60
12156;DHT22;6141;49.092;8.516;2024-01-07T05:27:20;6.60;59.10
12156;DHT22;6141;49.092;8.516;2024-01-07T05:30:10;6.70;58.30
12156;DHT22;6141;49.092;8.516;2024-01-07T05:32:59;6.80;58.00
12156;DHT22;6141;49.092;8.516;2024-01-07T05:35:48;7.00;55.60
12156;DHT22;6141;49.092;8.516;2024-01-07T05:38:37;6.90;55.00
12156;DHT22;6141;49.092;8.516;2024-01-07T05:41:25;6.70;57.00
12156;DHT22;6141;49.092;8.516;2024-01-07T05:44:14;6.70;56.80
12156;DHT22;6141;49.092;8.516;2024-01-07T05:47:04;6.60;57.20
12156;DHT22;6141;49.092;8.516;2024-01-07T05:49:52;6.50;58.30
12156;DHT22;6141;49.092;8.516;2024-01-07T05:52:41;6.60;57.80
12156;DHT22;6141;49.092;8.516;2024-01-07T05:55:31;6.70;57.50
12156;DHT22;6141;49.092;8.516;2024-01-07T05:58:20;6.70;56.60
12156;DHT22;6141;49.092;8.516;2024-01-07T06:01:08;6.90;55.90
12156;DHT22;6141;49.092;8.516;2024-01-07T06:03:58;6.90;55.10
12156;DHT22;6141;49.092;8.516;2024-01-07T06:06:47;7.00;55.10
12156;DHT22;6141;49.092;8.516;2024-01-07T06:09:40;6.90;55.10
12156;DHT22;6141;49.092;8.516;2024-01-07T06:12:28;7.00;54.60
12156;DHT22;6141;49.092;8.516;2024-01-07T06:15:17;6.90;54.90
12156;DHT22;6141;49.092;8.516;2024-01-07T06:18:06;6.90;55.30
12156;DHT22;6141;49.092;8.516;2024-01-07T06:20:56;7.00;54.60
12156;DHT22;6141;49.092;8.516;2024-01-07T06:23:45;6.80;54.90
12156;DHT22;6141;49.092;8.516;2024-01-07T06:26:33;6.50;56.80
12156;DHT22;6141;49.092;8.516;2024-01-07T06:29:22;6.70;56.40
12156;DHT22;6141;49.092;8.516;2024-01-07T06:32:11;6.70;56.30
12156;DHT22;6141;49.092;8.516;2024-01-07T06:35:00;6.70;56.60
12156;DHT22;6141;49.092;8.516;2024-01-07T06:37:53;6.70;56.50
12156;DHT22;6141;49.092;8.516;2024-01-07T06:40:41;7.10;55.10
12156;DHT22;6141;49.092;8.516;2024-01-07T06:43:30;7.30;53.20
12156;DHT22;6141;49.092;8.516;2024-01-07T06:46:19;7.30;52.60
12156;DHT22;6141;49.092;8.516;2024-01-07T06:49:08;7.20;52.30
12156;DHT22;6141;49.092;8.516;2024-01-07T06:51:57;7.00;52.80
12156;DHT22;6141;49.092;8.516;2024-01-07T06:54:47;7.20;52.80
12156;DHT22;6141;49.092;8.516;2024-01-07T06:57:39;7.20;52.80
12156;DHT22;6141;49.092;8.516;2024-01-07T07:00:28;7.10;53.90
12156;DHT22;6141;49.092;8.516;2024-01-07T07:03:17;7.30;53.00
12156;DHT22;6141;49.092;8.516;2024-01-07T07:06:05;7.30;52.50
12156;DHT22;6141;49.092;8.516;2024-01-07T07:08:54;7.40;51.10
12156;DHT22;6141;49.092;8.516;2024-01-07T07:11:43;7.10;52.80
12156;DHT22;6141;49.092;8.516;2024-01-07T07:14:32;7.00;54.10
12156;DHT22;6141;49.092;8.516;2024-01-07T07:17:20;6.80;54.90
12156;DHT22;6141;49.092;8.516;2024-01-07T07:20:10;6.70;55.50
12156;DHT22;6141;49.092;8.516;2024-01-07T07:22:59;6.80;56.00
12156;DHT22;6141;49.092;8.516;2024-01-07T07:25:48;6.80;55.90
12156;DHT22;6141;49.092;8.516;2024-01-07T07:28:38;6.80;55.10
12156;DHT22;6141;49.092;8.516;2024-01-07T07:31:26;6.60;58.30
12156;DHT22;6141;49.092;8.516;2024-01-07T07:34:15;6.50;57.70
12156;DHT22;6141;49.092;8.516;2024-01-07T07:37:04;6.40;59.20
12156;DHT22;6141;49.092;8.516;2024-01-07T07:39:53;6.20;60.30
12156;DHT22;6141;49.092;8.516;2024-01-07T07:42:41;6.30;61.40
12156;DHT22;6141;49.092;8.516;2024-01-07T07:45:32;6.30;61.00
12156;DHT22;6141;49.092;8.516;2024-01-07T07:48:20;6.40;60.30
12156;DHT22;6141;49.092;8.516;2024-01-07T07:51:09;6.40;60.30
12156;DHT22;6141;49.092;8.516;2024-01-07T07:53:57;6.30;60.80
12156;DHT22;6141;49.092;8.516;2024-01-07T07:56:45;6.50;60.40
12156;DHT22;6141;49.092;8.516;2024-01-07T07:59:35;6.50;60.20
12156;DHT22;6141;49.092;8.516;2024-01-07T08:02:25;6.50;60.00
12156;DHT22;6141;49.092;8.516;2024-01-07T08:05:13;6.50;59.50
12156;DHT22;6141;49.092;8.516;2024-01-07T08:08:02;6.40;61.10
12156;DHT22;6141;49.092;8.516;2024-01-07T08:10:51;6.50;59.50
12156;DHT22;6141;49.092;8.516;2024-01-07T08:13:39;6.50;59.90
12156;DHT22;6141;49.092;8.516;2024-01-07T08:16:28;6.40;61.10
12156;DHT22;6141;49.092;8.516;2024-01-07T08:19:18;6.50;61.20
12156;DHT22;6141;49.092;8.516;2024-01-07T08:22:07;6.50;60.70
12156;DHT22;6141;49.092;8.516;2024-01-07T08:24:57;6.70;59.70
12156;DHT22;6141;49.092;8.516;2024-01-07T08:27:45;6.50;59.90
12156;DHT22;6141;49.092;8.516;2024-01-07T08:30:37;6.40;60.40
12156;DHT22;6141;49.092;8.516;2024-01-07T08:33:29;6.50;60.70
12156;DHT22;6141;49.092;8.516;2024-01-07T08:36:22;6.60;60.50
12156;DHT22;6141;49.092;8.516;2024-01-07T08:39:11;6.40;60.90
12156;DHT22;6141;49.092;8.516;2024-01-07T08:41:59;6.60;60.80
12156;DHT22;6141;49.092;8.516;2024-01-07T08:44:48;6.60;60.50
12156;DHT22;6141;49.092;8.516;2024-01-07T08:47:36;6.60;60.10
12156;DHT22;6141;49.092;8.516;2024-01-07T08:50:31;6.70;60.20
12156;DHT22;6141;49.092;8.516;2024-01-07T08:53:21;6.50;59.90
12156;DHT22;6141;49.092;8.516;2024-01-07T08:56:09;6.50;60.50
12156;DHT22;6141;49.092;8.516;2024-01-07T08:58:58;6.50;60.90
12156;DHT22;6141;49.092;8.516;2024-01-07T09:01:46;6.50;60.50
12156;DHT22;6141;49.092;8.516;2024-01-07T09:04:35;6.70;59.80
12156;DHT22;6141;49.092;8.516;2024-01-07T09:07:25;6.60;60.00
12156;DHT22;6141;49.092;8.516;2024-01-07T09:10:15;6.70;60.20
12156;DHT22;6141;49.092;8.516;2024-01-07T09:13:05;6.70;59.40
12156;DHT22;6141;49.092;8.516;2024-01-07T09:15:54;6.50;60.10
12156;DHT22;6141;49.092;8.516;2024-01-07T09:18:43;6.60;60.20
12156;DHT22;6141;49.092;8.516;2024-01-07T09:21:32;6.80;60.10
12156;DHT22;6141;49.092;8.516;2024-01-07T09:24:21;6.80;58.90
12156;DHT22;6141;49.092;8.516;2024-01-07T09:27:11;7.00;57.80
12156;DHT22;6141;49.092;8.516;2024-01-07T09:29:59;7.00;57.80
12156;DHT22;6141;49.092;8.516;2024-01-07T09:32:48;7.00;57.50
12156;DHT22;6141;49.092;8.516;2024-01-07T09:35:37;6.90;58.70
12156;DHT22;6141;49.092;8.516;2024-01-07T09:38:25;6.90;59.70
12156;DHT22;6141;49.092;8.516;2024-01-07T09:41:14;7.10;58.50
12156;DHT22;6141;49.092;8.516;2024-01-07T09:44:04;7.20;56.50
12156;DHT22;6141;49.092;8.516;2024-01-07T09:46:55;7.00;57.70
12156;DHT22;6141;49.092;8.516;2024-01-07T09:49:44;7.00;58.30
12156;DHT22;6141;49.092;8.516;2024-01-07T09:52:33;6.90;58.90
12156;DHT22;6141;49.092;8.516;2024-01-07T09:55:27;6.80;60.10
12156;DHT22;6141;49.092;8.516;2024-01-07T09:58:16;6.80;59.70
12156;DHT22;6141;49.092;8.516;2024-01-07T10:01:07;6.70;59.50
12156;DHT22;6141;49.092;8.516;2024-01-07T10:03:55;6.60;60.20
12156;DHT22;6141;49.092;8.516;2024-01-07T10:06:44;6.50;60.00
12156;DHT22;6141;49.092;8.516;2024-01-07T10:09:33;6.60;59.50
12156;DHT22;6141;49.092;8.516;2024-01-07T10:12:22;6.50;55.20
12156;DHT22;6141;49.092;8.516;2024-01-07T10:15:11;6.30;54.40
12156;DHT22;6141;49.092;8.516;2024-01-07T10:18:04;6.20;51.50
12156;DHT22;6141;49.092;8.516;2024-01-07T10:20:54;6.00;49.60
12156;DHT22;6141;49.092;8.516;2024-01-07T10:23:42;6.10;51.30
12156;DHT22;6141;49.092;8.516;2024-01-07T10:26:31;6.10;51.60
12156;DHT22;6141;49.092;8.516;2024-01-07T10:29:21;6.00;47.40
12156;DHT22;6141;49.092;8.516;2024-01-07T10:32:10;5.80;47.80
12156;DHT22;6141;49.092;8.516;2024-01-07T10:35:03;5.80;47.90
12156;DHT22;6141;49.092;8.516;2024-01-07T10:37:53;5.80;48.00
12156;DHT22;6141;49.092;8.516;2024-01-07T10:40:44;5.80;48.70
12156;DHT22;6141;49.092;8.516;2024-01-07T10:43:36;5.70;46.90
12156;DHT22;6141;49.092;8.516;2024-01-07T10:46:28;5.70;46.80
12156;DHT22;6141;49.092;8.516;2024-01-07T10:49:19;5.60;46.00
12156;DHT22;6141;49.092;8.516;2024-01-07T10:52:10;5.60;46.00
12156;DHT22;6141;49.092;8.516;2024-01-07T10:55:08;5.40;46.00
12156;DHT22;6141;49.092;8.516;2024-01-07T10:57:58;5.40;45.30
12156;DHT22;6141;49.092;8.516;2024-01-07T11:00:48;5.50;46.80
12156;DHT22;6141;49.092;8.516;2024-01-07T11:03:43;5.50;45.10
12156;DHT22;6141;49.092;8.516;2024-01-07T11:06:41;5.40;42.20
12156;DHT22;6141;49.092;8.516;2024-01-07T11:09:36;5.30;42.90
12156;DHT22;6141;49.092;8.516;2024-01-07T11:12:26;5.30;42.80
12156;DHT22;6141;49.092;8.516;2024-01-07T11:15:51;5.40;41.40
12156;DHT22;6141;49.092;8.516;2024-01-07T11:18:45;5.30;42.00
12156;DHT22;6141;49.092;8.516;2024-01-07T11:21:37;5.40;41.40
12156;DHT22;6141;49.092;8.516;2024-01-07T11:24:39;5.40;41.40
12156;DHT22;6141;49.092;8.516;2024-01-07T11:27:29;5.50;42.10
12156;DHT22;6141;49.092;8.516;2024-01-07T11:30:19;5.60;41.50
12156;DHT22;6141;49.092;8.516;2024-01-07T11:33:11;5.60;41.50
12156;DHT22;6141;49.092;8.516;2024-01-07T11:36:02;5.50;41.50
12156;DHT22;6141;49.092;8.516;2024-01-07T11:38:53;5.50;41.50
12156;DHT22;6141;49.092;8.516;2024-01-07T11:41:46;5.70;41.60
12156;DHT22;6141;49.092;8.516;2024-01-07T11:44:35;5.70;40.60
12156;DHT22;6141;49.092;8.516;2024-01-07T11:47:25;5.80;41.20
12156;DHT22;6141;49.092;8.516;2024-01-07T11:50:15;6.10;41.10
12156;DHT22;6141;49.092;8.516;2024-01-07T11:53:04;6.10;39.30
12156;DHT22;6141;49.092;8.516;2024-01-07T11:55:53;6.10;38.90
12156;DHT22;6141;49.092;8.516;2024-01-07T11:58:43;6.00;39.00
12156;DHT22;6141;49.092;8.516;2024-01-07T12:01:31;6.10;38.60
12156;DHT22;6141;49.092;8.516;2024-01-07T12:04:20;6.00;36.80
12156;DHT22;6141;49.092;8.516;2024-01-07T12:07:09;5.90;37.10
12156;DHT22;6141;49.092;8.516;2024-01-07T12:10:02;5.80;37.90
12156;DHT22;6141;49.092;8.516;2024-01-07T12:12:51;5.90;37.40
12156;DHT22;6141;49.092;8.516;2024-01-07T12:15:41;5.80;37.30
12156;DHT22;6141;49.092;8.516;2024-01-07T12:18:31;6.00;37.90
12156;DHT22;6141;49.092;8.516;2024-01-07T12:21:20;6.00;37.70
12156;DHT22;6141;49.092;8.516;2024-01-07T12:24:09;6.00;37.90
12156;DHT22;6141;49.092;8.516;2024-01-07T12:27:03;6.20;37.30
12156;DHT22;6141;49.092;8.516;2024-01-07T12:29:55;6.40;37.80
12156;DHT22;6141;49.092;8.516;2024-01-07T12:32:45;6.40;35.00
12156;DHT22;6141;49.092;8.516;2024-01-07T12:35:34;6.20;36.30
12156;DHT22;6141;49.092;8.516;2024-01-07T12:38:23;6.30;36.80
12156;DHT22;6141;49.092;8.516;2024-01-07T12:41:12;6.30;34.50
12156;DHT22;6141;49.092;8.516;2024-01-07T12:44:00;6.10;36.00
12156;DHT22;6141;49.092;8.516;2024-01-07T12:46:49;6.20;37.10
12156;DHT22;6141;49.092;8.516;2024-01-07T12:49:40;6.50;35.60
12156;DHT22;6141;49.092;8.516;2024-01-07T12:52:29;6.30;34.60
12156;DHT22;6141;49.092;8.516;2024-01-07T12:55:17;6.10;35.00
12156;DHT22;6141;49.092;8.516;2024-01-07T12:58:06;6.00;34.70
12156;DHT22;6141;49.092;8.516;2024-01-07T13:00:55;6.00;36.10
12156;DHT22;6141;49.092;8.516;2024-01-07T13:03:44;6.10;35.10
12156;DHT22;6141;49.092;8.516;2024-01-07T13:06:35;5.70;35.20
12156;DHT22;6141;49.092;8.516;2024-01-07T13:09:24;5.70;34.80
12156;DHT22;6141;49.092;8.516;2024-01-07T13:12:12;5.60;33.50
12156;DHT22;6141;49.092;8.516;2024-01-07T13:15:00;5.50;33.90
12156;DHT22;6141;49.092;8.516;2024-01-07T13:17:49;5.30;34.30
12156;DHT22;6141;49.092;8.516;2024-01-07T13:20:38;5.20;35.70
12156;DHT22;6141;49.092;8.516;2024-01-07T13:23:30;5.40;34.40
12156;DHT22;6141;49.092;8.516;2024-01-07T13:26:20;5.40;33.80
12156;DHT22;6141;49.092;8.516;2024-01-07T13:29:08;5.40;32.80
12156;DHT22;6141;49.092;8.516;2024-01-07T13:31:57;5.30;34.60
12156;DHT22;6141;49.092;8.516;2024-01-07T13:34:47;5.40;35.10
12156;DHT22;6141;49.092;8.516;2024-01-07T13:37:36;5.50;33.10
12156;DHT22;6141;49.092;8.516;2024-01-07T13:40:26;5.20;32.70
12156;DHT22;6141;49.092;8.516;2024-01-07T13:43:15;5.10;33.90
12156;DHT22;6141;49.092;8.516;2024-01-07T13:46:04;5.20;33.90
12156;DHT22;6141;49.092;8.516;2024-01-07T13:48:53;5.20;33.50
12156;DHT22;6141;49.092;8.516;2024-01-07T13:51:42;5.40;33.80
12156;DHT22;6141;49.092;8.516;2024-01-07T13:54:30;5.60;32.80
12156;DHT22;6141;49.092;8.516;2024-01-07T13:57:20;5.70;33.40
12156;DHT22;6141;49.092;8.516;2024-01-07T14:00:10;5.70;31.90
12156;DHT22;6141;49.092;8.516;2024-01-07T14:03:05;5.50;31.10
12156;DHT22;6141;49.092;8.516;2024-01-07T14:05:54;5.20;32.60
12156;DHT22;6141;49.092;8.516;2024-01-07T14:08:42;5.10;31.70
12156;DHT22;6141;49.092;8.516;2024-01-07T14:11:31;4.90;32.60
12156;DHT22;6141;49.092;8.516;2024-01-07T14:14:21;5.00;32.40
12156;DHT22;6141;49.092;8.516;2024-01-07T14:17:09;4.90;32.20
12156;DHT22;6141;49.092;8.516;2024-01-07T14:19:39;4.80;32.10
12156;DHT22;6141;49.092;8.516;2024-01-07T14:22:07;5.00;33.30
12156;DHT22;6141;49.092;8.516;2024-01-07T14:24:35;5.10;32.00
12156;DHT22;6141;49.092;8.516;2024-01-07T14:27:04;5.20;31.00
12156;DHT22;6141;49.092;8.516;2024-01-07T14:29:33;5.30;31.80
12156;DHT22;6141;49.092;8.516;2024-01-07T14:32:02;5.00;31.40
12156;DHT22;6141;49.092;8.516;2024-01-07T14:34:32;5.00;33.30
12156;DHT22;6141;49.092;8.516;2024-01-07T14:37:00;5.00;32.80
12156;DHT22;6141;49.092;8.516;2024-01-07T14:39:29;5.00;31.40
12156;DHT22;6141;49.092;8.516;2024-01-07T14:41:57;4.90;32.40
12156;DHT22;6141;49.092;8.516;2024-01-07T14:44:25;4.90;32.10
12156;DHT22;6141;49.092;8.516;2024-01-07T14:47:11;4.70;30.90
12156;DHT22;6141;49.092;8.516;2024-01-07T14:49:40;4.80;31.80
12156;DHT22;6141;49.092;8.516;2024-01-07T14:52:09;4.90;32.00
12156;DHT22;6141;49.092;8.516;2024-01-07T14:54:37;4.70;32.20
12156;DHT22;6141;49.092;8.516;2024-01-07T14:57:06;4.60;31.30
12156;DHT22;6141;49.092;8.516;2024-01-07T14:59:36;4.70;32.70
12156;DHT22;6141;49.092;8.516;2024-01-07T15:02:24;4.70;29.80
12156;DHT22;6141;49.092;8.516;2024-01-07T15:05:13;4.70;30.00
12156;DHT22;6141;49.092;8.516;2024-01-07T15:08:01;4.50;30.00
12156;DHT22;6141;49.092;8.516;2024-01-07T15:10:50;4.50;31.80
12156;DHT22;6141;49.092;8.516;2024-01-07T15:13:38;4.60;30.90
12156;DHT22;6141;49.092;8.516;2024-01-07T15:16:27;4.70;30.80
12156;DHT22;6141;49.092;8.516;2024-01-07T15:19:17;4.60;29.90
12156;DHT22;6141;49.092;8.516;2024-01-07T15:22:06;4.60;31.80
12156;DHT22;6141;49.092;8.516;2024-01-07T15:24:54;4.70;30.80
12156;DHT22;6141;49.092;8.516;2024-01-07T15:27:43;4.80;29.80
12156;DHT22;6141;49.092;8.516;2024-01-07T15:30:32;5.00;29.50
12156;DHT22;6141;49.092;8.516;2024-01-07T15:33:20;5.10;30.00
12156;DHT22;6141;49.092;8.516;2024-01-07T15:36:11;5.10;31.30
12156;DHT22;6141;49.092;8.516;2024-01-07T15:38:59;5.10;32.90
12156;DHT22;6141;49.092;8.516;2024-01-07T15:41:48;4.90;33.20
12156;DHT22;6141;49.092;8.516;2024-01-07T15:44:37;4.90;33.30
12156;DHT22;6141;49.092;8.516;2024-01-07T15:47:25;4.80;34.50
12156;DHT22;6141;49.092;8.516;2024-01-07T15:50:14;4.80;34.60
12156;DHT22;6141;49.092;8.516;2024-01-07T15:53:04;4.80;34.70
12156;DHT22;6141;49.092;8.516;2024-01-07T15:55:54;5.00;34.10
12156;DHT22;6141;49.092;8.516;2024-01-07T15:58:43;5.00;33.60
12156;DHT22;6141;49.092;8.516;2024-01-07T16:01:31;4.90;33.60
12156;DHT22;6141;49.092;8.516;2024-01-07T16:04:20;4.90;34.30
12156;DHT22;6141;49.092;8.516;2024-01-07T16:07:11;4.70;33.00
12156;DHT22;6141;49.092;8.516;2024-01-07T16:10:01;4.60;34.40
12156;DHT22;6141;49.092;8.516;2024-01-07T16:12:49;4.60;34.40
12156;DHT22;6141;49.092;8.516;2024-01-07T16:15:38;4.60;33.60
12156;DHT22;6141;49.092;8.516;2024-01-07T16:18:26;4.50;34.30
12156;DHT22;6141;49.092;8.516;2024-01-07T16:21:15;4.40;34.80
12156;DHT22;6141;49.092;8.516;2024-01-07T16:24:07;4.30;34.30
12156;DHT22;6141;49.092;8.516;2024-01-07T16:26:57;4.30;35.70
12156;DHT22;6141;49.092;8.516;2024-01-07T16:29:46;4.20;35.70
12156;DHT22;6141;49.092;8.516;2024-01-07T16:32:35;4.10;37.30
12156;DHT22;6141;49.092;8.516;2024-01-07T16:35:23;4.30;35.70
12156;DHT22;6141;49.092;8.516;2024-01-07T16:37:52;4.10;37.40
12156;DHT22;6141;49.092;8.516;2024-01-07T16:40:20;4.00;38.30
12156;DHT22;6141;49.092;8.516;2024-01-07T16:42:49;3.90;40.00
12156;DHT22;6141;49.092;8.516;2024-01-07T16:45:18;4.00;40.00
12156;DHT22;6141;49.092;8.516;2024-01-07T16:47:46;4.10;40.10
12156;DHT22;6141;49.092;8.516;2024-01-07T16:50:15;4.20;39.30
12156;DHT22;6141;49.092;8.516;2024-01-07T16:52:51;4.20;39.00
12156;DHT22;6141;49.092;8.516;2024-01-07T16:55:20;4.10;40.10
12156;DHT22;6141;49.092;8.516;2024-01-07T16:57:50;4.20;40.30
12156;DHT22;6141;49.092;8.516;2024-01-07T17:00:19;4.10;38.90
12156;DHT22;6141;49.092;8.516;2024-01-07T17:02:47;3.90;39.70
12156;DHT22;6141;49.092;8.516;2024-01-07T17:05:15;3.90;40.00
12156;DHT22;6141;49.092;8.516;2024-01-07T17:07:44;4.00;40.40
12156;DHT22;6141;49.092;8.516;2024-01-07T17:10:15;3.90;40.70
12156;DHT22;6141;49.092;8.516;2024-01-07T17:12:43;4.00;40.80
12156;DHT22;6141;49.092;8.516;2024-01-07T17:15:13;4.00;40.00
12156;DHT22;6141;49.092;8.516;2024-01-07T17:17:41;4.20;40.20
12156;DHT22;6141;49.092;8.516;2024-01-07T17:20:10;4.10;40.20
12156;DHT22;6141;49.092;8.516;2024-01-07T17:22:40;4.10;40.10
12156;DHT22;6141;49.092;8.516;2024-01-07T17:25:08;4.10;38.30
12156;DHT22;6141;49.092;8.516;2024-01-07T17:27:36;3.80;39.00
12156;DHT22;6141;49.092;8.516;2024-01-07T17:30:06;3.60;39.70
12156;DHT22;6141;49.092;8.516;2024-01-07T17:32:36;3.60;39.70
12156;DHT22;6141;49.092;8.516;2024-01-07T17:35:05;3.50;39.80
12156;DHT22;6141;49.092;8.516;2024-01-07T17:37:34;3.40;40.20
12156;DHT22;6141;49.092;8.516;2024-01-07T17:40:05;3.40;41.00
12156;DHT22;6141;49.092;8.516;2024-01-07T17:42:34;3.40;41.10
12156;DHT22;6141;49.092;8.516;2024-01-07T17:45:02;3.30;39.90
12156;DHT22;6141;49.092;8.516;2024-01-07T17:47:31;3.40;41.50
12156;DHT22;6141;49.092;8.516;2024-01-07T17:50:04;3.50;39.60
12156;DHT22;6141;49.092;8.516;2024-01-07T17:52:32;3.50;39.60
12156;DHT22;6141;49.092;8.516;2024-01-07T17:55:00;3.30;40.60
12156;DHT22;6141;49.092;8.516;2024-01-07T17:57:29;3.50;40.10
12156;DHT22;6141;49.092;8.516;2024-01-07T18:00:00;3.30;40.10
12156;DHT22;6141;49.092;8.516;2024-01-07T18:02:36;3.30;39.40
12156;DHT22;6141;49.092;8.516;2024-01-07T18:05:08;3.10;39.20
12156;DHT22;6141;49.092;8.516;2024-01-07T18:07:36;3.10;40.70